sensor_id;sensor_type;location;lat;lon;timestamp;P1;durP1;ratioP1;P2;durP2;ratioP2
76477;SDS011;65309;49.790;18.972;2023-11-25T00:03:44;1.50;;;1.40;;
76477;SDS011;65309;49.790;18.972;2023-11-25T00:08:46;4.00;;;2.42;;
76477;SDS011;65309;49.790;18.972;2023-11-25T00:13:50;2.25;;;1.70;;
76477;SDS011;65309;49.790;18.972;2023-11-25T00:18:52;2.08;;;1.20;;
76477;SDS011;65309;49.790;18.972;2023-11-25T00:23:55;3.53;;;2.78;;
76477;SDS011;65309;49.790;18.972;2023-11-25T00:28:59;3.10;;;2.53;;
76477;SDS011;65309;49.790;18.972;2023-11-25T00:34:01;5.70;;;2.95;;
76477;SDS011;65309;49.790;18.972;2023-11-25T00:39:04;5.35;;;3.83;;
76477;SDS011;65309;49.790;18.972;2023-11-25T00:44:09;0.90;;;0.80;;
76477;SDS011;65309;49.790;18.972;2023-11-25T00:49:12;7.63;;;2.53;;
76477;SDS011;65309;49.790;18.972;2023-11-25T00:54:15;3.25;;;2.22;;
76477;SDS011;65309;49.790;18.972;2023-11-25T00:59:20;2.63;;;2.03;;
76477;SDS011;65309;49.790;18.972;2023-11-25T01:04:23;4.32;;;2.83;;
76477;SDS011;65309;49.790;18.972;2023-11-25T01:09:25;1.10;;;0.95;;
76477;SDS011;65309;49.790;18.972;2023-11-25T01:14:33;5.70;;;2.33;;
76477;SDS011;65309;49.790;18.972;2023-11-25T01:19:36;3.08;;;2.03;;
76477;SDS011;65309;49.790;18.972;2023-11-25T01:24:38;2.38;;;1.60;;
76477;SDS011;65309;49.790;18.972;2023-11-25T01:29:42;1.05;;;0.93;;
76477;SDS011;65309;49.790;18.972;2023-11-25T01:34:45;4.93;;;1.95;;
76477;SDS011;65309;49.790;18.972;2023-11-25T01:39:48;1.42;;;0.90;;
76477;SDS011;65309;49.790;18.972;2023-11-25T01:44:51;2.53;;;1.48;;
76477;SDS011;65309;49.790;18.972;2023-11-25T01:54:56;2.92;;;2.08;;
76477;SDS011;65309;49.790;18.972;2023-11-25T01:59:59;2.50;;;1.42;;
76477;SDS011;65309;49.790;18.972;2023-11-25T02:05:09;1.30;;;0.82;;
76477;SDS011;65309;49.790;18.972;2023-11-25T02:10:12;1.40;;;1.30;;
76477;SDS011;65309;49.790;18.972;2023-11-25T02:15:16;4.65;;;1.42;;
76477;SDS011;65309;49.790;18.972;2023-11-25T02:20:29;2.45;;;1.85;;
76477;SDS011;65309;49.790;18.972;2023-11-25T02:25:33;4.90;;;2.42;;
76477;SDS011;65309;49.790;18.972;2023-11-25T02:30:35;3.83;;;2.05;;
76477;SDS011;65309;49.790;18.972;2023-11-25T02:35:38;2.47;;;1.13;;
76477;SDS011;65309;49.790;18.972;2023-11-25T02:40:43;2.30;;;1.67;;
76477;SDS011;65309;49.790;18.972;2023-11-25T02:45:47;3.10;;;1.95;;
76477;SDS011;65309;49.790;18.972;2023-11-25T02:50:50;3.10;;;1.98;;
76477;SDS011;65309;49.790;18.972;2023-11-25T02:55:53;2.72;;;1.58;;
76477;SDS011;65309;49.790;18.972;2023-11-25T03:00:56;5.18;;;2.17;;
76477;SDS011;65309;49.790;18.972;2023-11-25T03:06:04;2.85;;;2.35;;
76477;SDS011;65309;49.790;18.972;2023-11-25T03:11:09;3.20;;;2.03;;
76477;SDS011;65309;49.790;18.972;2023-11-25T03:16:17;3.50;;;1.65;;
76477;SDS011;65309;49.790;18.972;2023-11-25T03:21:26;3.13;;;1.70;;
76477;SDS011;65309;49.790;18.972;2023-11-25T03:26:31;2.30;;;1.75;;
76477;SDS011;65309;49.790;18.972;2023-11-25T03:36:35;3.85;;;2.30;;
76477;SDS011;65309;49.790;18.972;2023-11-25T03:41:39;5.07;;;2.38;;
76477;SDS011;65309;49.790;18.972;2023-11-25T03:51:44;3.30;;;2.15;;
76477;SDS011;65309;49.790;18.972;2023-11-25T03:56:48;4.38;;;3.08;;
76477;SDS011;65309;49.790;18.972;2023-11-25T04:01:51;3.20;;;2.53;;
76477;SDS011;65309;49.790;18.972;2023-11-25T04:06:53;2.33;;;1.88;;
76477;SDS011;65309;49.790;18.972;2023-11-25T04:11:57;1.85;;;1.05;;
76477;SDS011;65309;49.790;18.972;2023-11-25T04:22:01;3.53;;;1.88;;
76477;SDS011;65309;49.790;18.972;2023-11-25T04:27:06;3.70;;;1.70;;
76477;SDS011;65309;49.790;18.972;2023-11-25T04:37:11;2.45;;;1.98;;
76477;SDS011;65309;49.790;18.972;2023-11-25T04:42:14;3.63;;;1.58;;
76477;SDS011;65309;49.790;18.972;2023-11-25T04:47:17;3.30;;;1.75;;
76477;SDS011;65309;49.790;18.972;2023-11-25T04:52:19;2.25;;;1.45;;
76477;SDS011;65309;49.790;18.972;2023-11-25T04:57:23;4.25;;;2.45;;
76477;SDS011;65309;49.790;18.972;2023-11-25T05:07:28;3.50;;;1.52;;
76477;SDS011;65309;49.790;18.972;2023-11-25T05:12:31;2.53;;;1.85;;
76477;SDS011;65309;49.790;18.972;2023-11-25T05:17:34;3.80;;;1.60;;
76477;SDS011;65309;49.790;18.972;2023-11-25T05:22:36;3.28;;;2.33;;
76477;SDS011;65309;49.790;18.972;2023-11-25T05:27:40;2.65;;;1.60;;
76477;SDS011;65309;49.790;18.972;2023-11-25T05:32:43;4.55;;;2.42;;
76477;SDS011;65309;49.790;18.972;2023-11-25T05:37:45;4.65;;;3.30;;
76477;SDS011;65309;49.790;18.972;2023-11-25T05:42:49;3.20;;;2.30;;
76477;SDS011;65309;49.790;18.972;2023-11-25T05:47:56;4.75;;;3.75;;
76477;SDS011;65309;49.790;18.972;2023-11-25T05:52:59;4.57;;;3.05;;
76477;SDS011;65309;49.790;18.972;2023-11-25T05:58:03;5.57;;;4.05;;
76477;SDS011;65309;49.790;18.972;2023-11-25T06:03:05;4.13;;;3.17;;
76477;SDS011;65309;49.790;18.972;2023-11-25T06:08:07;1.90;;;1.67;;
76477;SDS011;65309;49.790;18.972;2023-11-25T06:13:11;5.00;;;3.65;;
76477;SDS011;65309;49.790;18.972;2023-11-25T06:18:13;3.67;;;2.17;;
76477;SDS011;65309;49.790;18.972;2023-11-25T06:23:16;4.93;;;2.30;;
76477;SDS011;65309;49.790;18.972;2023-11-25T06:28:20;3.92;;;2.92;;
76477;SDS011;65309;49.790;18.972;2023-11-25T06:33:26;7.15;;;3.67;;
76477;SDS011;65309;49.790;18.972;2023-11-25T06:38:28;5.05;;;3.20;;
76477;SDS011;65309;49.790;18.972;2023-11-25T06:43:32;10.00;;;5.20;;
76477;SDS011;65309;49.790;18.972;2023-11-25T06:53:37;3.80;;;2.55;;
76477;SDS011;65309;49.790;18.972;2023-11-25T06:58:43;6.63;;;3.95;;
76477;SDS011;65309;49.790;18.972;2023-11-25T07:03:45;5.43;;;3.10;;
76477;SDS011;65309;49.790;18.972;2023-11-25T07:08:47;8.88;;;5.10;;
76477;SDS011;65309;49.790;18.972;2023-11-25T07:13:51;8.35;;;4.43;;
76477;SDS011;65309;49.790;18.972;2023-11-25T07:18:56;4.95;;;2.28;;
76477;SDS011;65309;49.790;18.972;2023-11-25T07:23:58;6.45;;;3.45;;
76477;SDS011;65309;49.790;18.972;2023-11-25T07:29:02;2.67;;;1.50;;
76477;SDS011;65309;49.790;18.972;2023-11-25T07:34:06;2.58;;;1.73;;
76477;SDS011;65309;49.790;18.972;2023-11-25T07:39:08;5.38;;;2.40;;
76477;SDS011;65309;49.790;18.972;2023-11-25T07:44:12;3.63;;;2.20;;
76477;SDS011;65309;49.790;18.972;2023-11-25T07:49:15;8.90;;;5.28;;
76477;SDS011;65309;49.790;18.972;2023-11-25T07:54:17;5.15;;;2.83;;
76477;SDS011;65309;49.790;18.972;2023-11-25T07:59:21;2.58;;;2.38;;
76477;SDS011;65309;49.790;18.972;2023-11-25T08:04:23;5.75;;;3.30;;
76477;SDS011;65309;49.790;18.972;2023-11-25T08:09:27;6.13;;;3.50;;
76477;SDS011;65309;49.790;18.972;2023-11-25T08:14:30;10.35;;;4.38;;
76477;SDS011;65309;49.790;18.972;2023-11-25T08:19:33;7.57;;;4.88;;
76477;SDS011;65309;49.790;18.972;2023-11-25T08:24:35;2.78;;;2.53;;
76477;SDS011;65309;49.790;18.972;2023-11-25T08:29:39;7.07;;;4.20;;
76477;SDS011;65309;49.790;18.972;2023-11-25T08:34:43;2.78;;;2.53;;
76477;SDS011;65309;49.790;18.972;2023-11-25T08:39:46;2.33;;;2.15;;
76477;SDS011;65309;49.790;18.972;2023-11-25T08:44:50;3.00;;;2.20;;
76477;SDS011;65309;49.790;18.972;2023-11-25T08:49:52;6.72;;;3.22;;
76477;SDS011;65309;49.790;18.972;2023-11-25T08:54:55;6.90;;;3.42;;
76477;SDS011;65309;49.790;18.972;2023-11-25T08:59:58;5.97;;;2.90;;
76477;SDS011;65309;49.790;18.972;2023-11-25T09:10:12;5.90;;;3.00;;
76477;SDS011;65309;49.790;18.972;2023-11-25T09:15:15;7.10;;;4.20;;
76477;SDS011;65309;49.790;18.972;2023-11-25T09:20:18;16.77;;;3.45;;
76477;SDS011;65309;49.790;18.972;2023-11-25T09:25:22;8.40;;;4.45;;
76477;SDS011;65309;49.790;18.972;2023-11-25T09:30:28;8.98;;;4.78;;
76477;SDS011;65309;49.790;18.972;2023-11-25T09:40:32;11.13;;;6.10;;
76477;SDS011;65309;49.790;18.972;2023-11-25T09:45:36;10.88;;;5.43;;
76477;SDS011;65309;49.790;18.972;2023-11-25T09:50:39;7.85;;;5.07;;
76477;SDS011;65309;49.790;18.972;2023-11-25T09:55:42;5.53;;;3.58;;
76477;SDS011;65309;49.790;18.972;2023-11-25T10:00:58;12.00;;;7.40;;
76477;SDS011;65309;49.790;18.972;2023-11-25T10:06:01;11.90;;;8.70;;
76477;SDS011;65309;49.790;18.972;2023-11-25T10:11:04;13.35;;;6.95;;
76477;SDS011;65309;49.790;18.972;2023-11-25T10:16:10;8.00;;;5.57;;
76477;SDS011;65309;49.790;18.972;2023-11-25T10:21:15;10.20;;;4.93;;
76477;SDS011;65309;49.790;18.972;2023-11-25T10:26:17;9.15;;;5.78;;
76477;SDS011;65309;49.790;18.972;2023-11-25T10:31:21;11.68;;;4.32;;
76477;SDS011;65309;49.790;18.972;2023-11-25T10:36:24;12.18;;;5.15;;
76477;SDS011;65309;49.790;18.972;2023-11-25T10:41:27;6.03;;;2.65;;
76477;SDS011;65309;49.790;18.972;2023-11-25T10:46:37;5.55;;;3.97;;
76477;SDS011;65309;49.790;18.972;2023-11-25T10:51:40;9.23;;;5.82;;
76477;SDS011;65309;49.790;18.972;2023-11-25T10:56:46;5.75;;;3.95;;
76477;SDS011;65309;49.790;18.972;2023-11-25T11:01:49;7.43;;;3.33;;
76477;SDS011;65309;49.790;18.972;2023-11-25T11:06:57;5.97;;;3.88;;
76477;SDS011;65309;49.790;18.972;2023-11-25T11:12:07;7.55;;;3.30;;
76477;SDS011;65309;49.790;18.972;2023-11-25T11:17:17;5.20;;;3.17;;
76477;SDS011;65309;49.790;18.972;2023-11-25T11:22:26;5.18;;;3.22;;
76477;SDS011;65309;49.790;18.972;2023-11-25T11:27:31;5.47;;;3.88;;
76477;SDS011;65309;49.790;18.972;2023-11-25T11:32:43;8.05;;;4.03;;
76477;SDS011;65309;49.790;18.972;2023-11-25T11:37:47;7.05;;;4.75;;
76477;SDS011;65309;49.790;18.972;2023-11-25T11:42:51;10.57;;;6.30;;
76477;SDS011;65309;49.790;18.972;2023-11-25T11:47:59;10.20;;;6.15;;
76477;SDS011;65309;49.790;18.972;2023-11-25T11:53:12;11.27;;;6.97;;
76477;SDS011;65309;49.790;18.972;2023-11-25T11:58:16;6.28;;;4.20;;
76477;SDS011;65309;49.790;18.972;2023-11-25T12:03:21;5.18;;;3.33;;
76477;SDS011;65309;49.790;18.972;2023-11-25T12:08:24;8.07;;;4.30;;
76477;SDS011;65309;49.790;18.972;2023-11-25T12:13:27;8.40;;;5.50;;
76477;SDS011;65309;49.790;18.972;2023-11-25T12:18:32;12.48;;;6.97;;
76477;SDS011;65309;49.790;18.972;2023-11-25T12:23:35;6.03;;;3.90;;
76477;SDS011;65309;49.790;18.972;2023-11-25T12:28:52;8.40;;;5.13;;
76477;SDS011;65309;49.790;18.972;2023-11-25T12:33:56;8.05;;;4.05;;
76477;SDS011;65309;49.790;18.972;2023-11-25T12:39:03;6.50;;;4.22;;
76477;SDS011;65309;49.790;18.972;2023-11-25T12:44:12;3.10;;;2.10;;
76477;SDS011;65309;49.790;18.972;2023-11-25T12:49:20;5.55;;;3.72;;
76477;SDS011;65309;49.790;18.972;2023-11-25T12:54:24;9.25;;;4.60;;
76477;SDS011;65309;49.790;18.972;2023-11-25T12:59:27;7.43;;;3.63;;
76477;SDS011;65309;49.790;18.972;2023-11-25T13:04:32;6.63;;;4.88;;
76477;SDS011;65309;49.790;18.972;2023-11-25T13:14:41;9.27;;;5.05;;
76477;SDS011;65309;49.790;18.972;2023-11-25T13:19:45;6.82;;;5.50;;
76477;SDS011;65309;49.790;18.972;2023-11-25T13:24:47;10.35;;;6.20;;
76477;SDS011;65309;49.790;18.972;2023-11-25T13:29:50;11.43;;;5.72;;
76477;SDS011;65309;49.790;18.972;2023-11-25T13:34:53;11.93;;;5.95;;
76477;SDS011;65309;49.790;18.972;2023-11-25T13:39:56;12.68;;;6.18;;
76477;SDS011;65309;49.790;18.972;2023-11-25T13:44:58;16.55;;;8.30;;
76477;SDS011;65309;49.790;18.972;2023-11-25T13:50:05;10.07;;;5.18;;
76477;SDS011;65309;49.790;18.972;2023-11-25T13:55:10;7.35;;;4.18;;
76477;SDS011;65309;49.790;18.972;2023-11-25T14:00:14;10.85;;;6.55;;
76477;SDS011;65309;49.790;18.972;2023-11-25T14:05:18;6.20;;;3.60;;
76477;SDS011;65309;49.790;18.972;2023-11-25T14:10:21;10.25;;;5.90;;
76477;SDS011;65309;49.790;18.972;2023-11-25T14:15:23;10.00;;;6.07;;
76477;SDS011;65309;49.790;18.972;2023-11-25T14:20:27;9.98;;;5.55;;
76477;SDS011;65309;49.790;18.972;2023-11-25T14:25:30;7.20;;;5.13;;
76477;SDS011;65309;49.790;18.972;2023-11-25T14:30:33;12.40;;;6.45;;
76477;SDS011;65309;49.790;18.972;2023-11-25T14:35:37;13.07;;;5.18;;
76477;SDS011;65309;49.790;18.972;2023-11-25T14:40:39;12.38;;;5.75;;
76477;SDS011;65309;49.790;18.972;2023-11-25T14:45:41;9.90;;;5.88;;
76477;SDS011;65309;49.790;18.972;2023-11-25T14:50:46;12.30;;;6.50;;
76477;SDS011;65309;49.790;18.972;2023-11-25T14:55:48;14.57;;;7.28;;
76477;SDS011;65309;49.790;18.972;2023-11-25T15:00:52;14.38;;;7.13;;
76477;SDS011;65309;49.790;18.972;2023-11-25T15:05:56;13.20;;;7.22;;
76477;SDS011;65309;49.790;18.972;2023-11-25T15:16:00;6.72;;;4.53;;
76477;SDS011;65309;49.790;18.972;2023-11-25T15:21:04;10.35;;;4.43;;
76477;SDS011;65309;49.790;18.972;2023-11-25T15:26:07;13.48;;;8.27;;
76477;SDS011;65309;49.790;18.972;2023-11-25T15:31:09;16.67;;;7.57;;
76477;SDS011;65309;49.790;18.972;2023-11-25T15:36:14;8.18;;;5.82;;
76477;SDS011;65309;49.790;18.972;2023-11-25T15:41:17;10.98;;;5.38;;
76477;SDS011;65309;49.790;18.972;2023-11-25T15:46:20;7.28;;;4.28;;
76477;SDS011;65309;49.790;18.972;2023-11-25T15:51:24;14.77;;;7.55;;
76477;SDS011;65309;49.790;18.972;2023-11-25T15:56:27;15.02;;;8.15;;
76477;SDS011;65309;49.790;18.972;2023-11-25T16:01:31;16.17;;;9.15;;
76477;SDS011;65309;49.790;18.972;2023-11-25T16:06:35;18.80;;;10.35;;
76477;SDS011;65309;49.790;18.972;2023-11-25T16:11:37;30.65;;;13.27;;
76477;SDS011;65309;49.790;18.972;2023-11-25T16:16:40;14.02;;;8.20;;
76477;SDS011;65309;49.790;18.972;2023-11-25T16:21:44;21.15;;;8.07;;
76477;SDS011;65309;49.790;18.972;2023-11-25T16:26:48;11.07;;;6.88;;
76477;SDS011;65309;49.790;18.972;2023-11-25T16:31:51;11.43;;;8.57;;
76477;SDS011;65309;49.790;18.972;2023-11-25T16:36:55;10.50;;;5.40;;
76477;SDS011;65309;49.790;18.972;2023-11-25T16:41:58;7.50;;;5.38;;
76477;SDS011;65309;49.790;18.972;2023-11-25T16:47:00;8.55;;;5.55;;
76477;SDS011;65309;49.790;18.972;2023-11-25T16:52:04;7.88;;;5.07;;
76477;SDS011;65309;49.790;18.972;2023-11-25T16:57:06;4.40;;;2.83;;
76477;SDS011;65309;49.790;18.972;2023-11-25T17:02:09;3.83;;;2.90;;
76477;SDS011;65309;49.790;18.972;2023-11-25T17:07:13;5.57;;;3.95;;
76477;SDS011;65309;49.790;18.972;2023-11-25T17:12:17;4.05;;;2.80;;
76477;SDS011;65309;49.790;18.972;2023-11-25T17:17:19;5.80;;;4.05;;
76477;SDS011;65309;49.790;18.972;2023-11-25T17:22:23;11.93;;;6.93;;
76477;SDS011;65309;49.790;18.972;2023-11-25T17:32:28;12.32;;;5.18;;
76477;SDS011;65309;49.790;18.972;2023-11-25T17:37:31;9.82;;;6.65;;
76477;SDS011;65309;49.790;18.972;2023-11-25T17:42:34;9.38;;;5.47;;
76477;SDS011;65309;49.790;18.972;2023-11-25T17:47:36;6.97;;;4.65;;
76477;SDS011;65309;49.790;18.972;2023-11-25T17:52:40;10.68;;;5.22;;
76477;SDS011;65309;49.790;18.972;2023-11-25T17:57:43;10.77;;;5.38;;
76477;SDS011;65309;49.790;18.972;2023-11-25T18:02:46;7.03;;;4.72;;
76477;SDS011;65309;49.790;18.972;2023-11-25T18:07:49;7.35;;;4.63;;
76477;SDS011;65309;49.790;18.972;2023-11-25T18:12:55;8.85;;;5.32;;
76477;SDS011;65309;49.790;18.972;2023-11-25T18:17:57;9.40;;;5.15;;
76477;SDS011;65309;49.790;18.972;2023-11-25T18:23:01;6.80;;;4.70;;
76477;SDS011;65309;49.790;18.972;2023-11-25T18:28:04;9.02;;;5.82;;
76477;SDS011;65309;49.790;18.972;2023-11-25T18:33:07;10.75;;;4.10;;
76477;SDS011;65309;49.790;18.972;2023-11-25T18:38:11;3.42;;;2.47;;
76477;SDS011;65309;49.790;18.972;2023-11-25T18:43:14;8.15;;;4.50;;
76477;SDS011;65309;49.790;18.972;2023-11-25T18:48:17;9.63;;;4.20;;
76477;SDS011;65309;49.790;18.972;2023-11-25T18:53:22;4.78;;;3.45;;
76477;SDS011;65309;49.790;18.972;2023-11-25T18:58:29;5.35;;;3.10;;
76477;SDS011;65309;49.790;18.972;2023-11-25T19:03:37;10.38;;;5.22;;
76477;SDS011;65309;49.790;18.972;2023-11-25T19:08:41;19.13;;;9.20;;
76477;SDS011;65309;49.790;18.972;2023-11-25T19:13:44;15.65;;;9.05;;
76477;SDS011;65309;49.790;18.972;2023-11-25T19:18:50;7.45;;;4.00;;
76477;SDS011;65309;49.790;18.972;2023-11-25T19:23:54;10.15;;;3.47;;
76477;SDS011;65309;49.790;18.972;2023-11-25T19:28:56;8.40;;;4.72;;
76477;SDS011;65309;49.790;18.972;2023-11-25T19:33:59;10.40;;;5.07;;
76477;SDS011;65309;49.790;18.972;2023-11-25T19:39:05;6.18;;;4.03;;
76477;SDS011;65309;49.790;18.972;2023-11-25T19:44:12;11.10;;;3.65;;
76477;SDS011;65309;49.790;18.972;2023-11-25T19:49:15;6.50;;;4.20;;
76477;SDS011;65309;49.790;18.972;2023-11-25T19:54:19;10.02;;;6.05;;
76477;SDS011;65309;49.790;18.972;2023-11-25T19:59:25;9.35;;;5.25;;
76477;SDS011;65309;49.790;18.972;2023-11-25T20:04:34;13.18;;;6.20;;
76477;SDS011;65309;49.790;18.972;2023-11-25T20:09:39;10.20;;;5.45;;
76477;SDS011;65309;49.790;18.972;2023-11-25T20:14:41;9.05;;;6.28;;
76477;SDS011;65309;49.790;18.972;2023-11-25T20:19:44;10.90;;;6.93;;
76477;SDS011;65309;49.790;18.972;2023-11-25T20:24:52;1.80;;;0.90;;
76477;SDS011;65309;49.790;18.972;2023-11-25T20:30:01;11.48;;;2.95;;
76477;SDS011;65309;49.790;18.972;2023-11-25T20:35:05;5.43;;;3.13;;
76477;SDS011;65309;49.790;18.972;2023-11-25T20:40:11;8.27;;;3.50;;
76477;SDS011;65309;49.790;18.972;2023-11-25T20:45:14;5.88;;;3.20;;
76477;SDS011;65309;49.790;18.972;2023-11-25T20:50:16;6.28;;;3.65;;
76477;SDS011;65309;49.790;18.972;2023-11-25T20:55:20;4.80;;;3.50;;
76477;SDS011;65309;49.790;18.972;2023-11-25T21:05:25;5.03;;;3.28;;
76477;SDS011;65309;49.790;18.972;2023-11-25T21:10:29;6.95;;;4.05;;
76477;SDS011;65309;49.790;18.972;2023-11-25T21:15:31;10.57;;;4.78;;
76477;SDS011;65309;49.790;18.972;2023-11-25T21:20:33;5.63;;;3.42;;
76477;SDS011;65309;49.790;18.972;2023-11-25T21:25:37;20.00;;;6.43;;
76477;SDS011;65309;49.790;18.972;2023-11-25T21:35:41;10.88;;;2.85;;
76477;SDS011;65309;49.790;18.972;2023-11-25T21:40:45;7.88;;;4.85;;
76477;SDS011;65309;49.790;18.972;2023-11-25T21:45:47;11.05;;;4.60;;
76477;SDS011;65309;49.790;18.972;2023-11-25T21:50:52;13.68;;;7.97;;
76477;SDS011;65309;49.790;18.972;2023-11-25T21:55:57;8.60;;;4.28;;
76477;SDS011;65309;49.790;18.972;2023-11-25T22:01:00;3.67;;;2.50;;
76477;SDS011;65309;49.790;18.972;2023-11-25T22:06:02;5.25;;;3.53;;
76477;SDS011;65309;49.790;18.972;2023-11-25T22:11:08;8.00;;;3.42;;
76477;SDS011;65309;49.790;18.972;2023-11-25T22:21:12;9.98;;;5.45;;
76477;SDS011;65309;49.790;18.972;2023-11-25T22:26:16;5.25;;;3.15;;
76477;SDS011;65309;49.790;18.972;2023-11-25T22:31:28;5.75;;;3.30;;
76477;SDS011;65309;49.790;18.972;2023-11-25T22:36:30;9.05;;;4.38;;
76477;SDS011;65309;49.790;18.972;2023-11-25T22:41:34;6.80;;;4.32;;
76477;SDS011;65309;49.790;18.972;2023-11-25T22:46:37;9.10;;;4.05;;
76477;SDS011;65309;49.790;18.972;2023-11-25T22:51:44;6.32;;;3.38;;
76477;SDS011;65309;49.790;18.972;2023-11-25T22:56:48;4.32;;;3.28;;
76477;SDS011;65309;49.790;18.972;2023-11-25T23:01:51;6.90;;;3.20;;
76477;SDS011;65309;49.790;18.972;2023-11-25T23:06:53;7.07;;;3.65;;
76477;SDS011;65309;49.790;18.972;2023-11-25T23:11:57;5.50;;;3.47;;
76477;SDS011;65309;49.790;18.972;2023-11-25T23:22:02;12.35;;;4.03;;
76477;SDS011;65309;49.790;18.972;2023-11-25T23:27:06;6.25;;;3.53;;
76477;SDS011;65309;49.790;18.972;2023-11-25T23:32:10;10.93;;;3.47;;
76477;SDS011;65309;49.790;18.972;2023-11-25T23:37:14;4.18;;;3.67;;
76477;SDS011;65309;49.790;18.972;2023-11-25T23:42:19;4.40;;;2.35;;
76477;SDS011;65309;49.790;18.972;2023-11-25T23:47:21;5.28;;;3.35;;
76477;SDS011;65309;49.790;18.972;2023-11-25T23:52:23;6.22;;;3.47;;
76477;SDS011;65309;49.790;18.972;2023-11-25T23:57:27;6.22;;;3.60;;
